Time,TemperatureF,DewpointF,PressureIn,WindDirection,WindDirectionDegrees,WindSpeedMPH,WindSpeedGustMPH,Humidity,HourlyPrecipIn,Conditions,Clouds,dailyrainin,SoftwareType,DateUTC
2013-08-06 00:01:00,57.2,48.6,29.80,SSW,202,7.0,10.0,73,0.00,,---,0.00,VWS V13.00,2013-08-06 06:01:00,
2013-08-06 00:06:00,57.1,48.2,29.80,SSW,207,0.0,11.0,72,0.00,,---,0.00,VWS V13.00,2013-08-06 06:06:00,
2013-08-06 00:11:00,57.1,48.2,29.78,SSW,211,0.0,1.0,72,0.00,,---,0.00,VWS V13.00,2013-08-06 06:11:00,
2013-08-06 00:16:00,57.1,47.8,29.78,SSW,211,0.0,1.0,71,0.00,,---,0.00,VWS V13.00,2013-08-06 06:16:00,
2013-08-06 00:21:00,57.0,47.7,29.78,SSW,213,0.0,1.0,71,0.00,,---,0.00,VWS V13.00,2013-08-06 06:21:00,
2013-08-06 00:26:00,56.8,47.9,29.78,SW,214,0.0,1.0,72,0.00,,---,0.00,VWS V13.00,2013-08-06 06:26:00,
2013-08-06 00:31:00,56.6,47.7,29.78,SSW,213,0.0,1.0,72,0.00,,---,0.00,VWS V13.00,2013-08-06 06:31:00,
2013-08-06 00:36:00,56.4,47.9,29.78,SSW,213,0.0,1.0,73,0.00,,---,0.00,VWS V13.00,2013-08-06 06:36:00,
2013-08-06 00:41:00,56.3,47.8,29.79,SSW,213,0.0,0.0,73,0.00,,---,0.00,VWS V13.00,2013-08-06 06:41:00,
2013-08-06 00:46:00,56.0,47.5,29.79,SSW,213,0.0,0.0,73,0.00,,---,0.00,VWS V13.00,2013-08-06 06:46:00,
2013-08-06 00:51:00,55.4,47.3,29.79,SSW,213,0.0,0.0,74,0.00,,---,0.00,VWS V13.00,2013-08-06 06:51:00,
2013-08-06 00:56:00,54.9,47.1,29.79,SSW,213,0.0,0.0,75,0.00,,---,0.00,VWS V13.00,2013-08-06 06:56:00,
2013-08-06 01:01:00,54.8,46.7,29.79,SSW,213,0.0,0.0,74,0.00,,---,0.00,VWS V13.00,2013-08-06 07:01:00,
2013-08-06 01:06:00,54.7,46.6,29.79,SSW,213,0.0,0.0,74,0.00,,---,0.00,VWS V13.00,2013-08-06 07:06:00,
2013-08-06 01:11:00,54.7,46.9,29.79,SSW,213,0.0,0.0,75,0.00,,---,0.00,VWS V13.00,2013-08-06 07:11:00,
2013-08-06 01:16:00,54.6,47.2,29.79,SSW,213,0.0,0.0,76,0.00,,---,0.00,VWS V13.00,2013-08-06 07:16:00,
2013-08-06 01:21:00,54.5,47.1,29.79,SSW,213,0.0,0.0,76,0.00,,---,0.00,VWS V13.00,2013-08-06 07:21:00,
2013-08-06 01:26:00,54.2,46.8,29.81,SSW,213,0.0,0.0,76,0.00,,---,0.00,VWS V13.00,2013-08-06 07:26:00,
2013-08-06 01:31:00,53.8,47.1,29.81,SSW,213,0.0,0.0,78,0.00,,---,0.00,VWS V13.00,2013-08-06 07:31:00,
2013-08-06 01:36:00,53.5,46.8,29.81,SSW,213,0.0,0.0,78,0.00,,---,0.00,VWS V13.00,2013-08-06 07:36:00,
2013-08-06 01:41:00,53.3,47.0,29.80,SSW,213,0.0,0.0,79,0.00,,---,0.00,VWS V13.00,2013-08-06 07:41:00,
2013-08-06 01:46:00,53.1,47.1,29.80,SSW,213,0.0,0.0,80,0.00,,---,0.00,VWS V13.00,2013-08-06 07:46:00,
2013-08-06 01:51:00,52.9,46.6,29.80,SSW,213,0.0,0.0,79,0.00,,---,0.00,VWS V13.00,2013-08-06 07:51:00,
2013-08-06 01:56:00,52.8,46.8,29.81,SSW,213,0.0,0.0,80,0.00,,---,0.00,VWS V13.00,2013-08-06 07:56:00,
2013-08-06 02:01:00,52.6,46.6,29.81,SSW,213,0.0,0.0,80,0.00,,---,0.00,VWS V13.00,2013-08-06 08:01:00,
2013-08-06 02:06:00,52.5,46.8,29.81,SSW,213,0.0,0.0,81,0.00,,---,0.00,VWS V13.00,2013-08-06 08:06:00,
2013-08-06 02:11:00,52.3,47.0,29.81,SSW,213,0.0,0.0,82,0.00,,---,0.00,VWS V13.00,2013-08-06 08:11:00,
2013-08-06 02:16:00,51.4,46.1,29.81,SSW,213,0.0,0.0,82,0.00,,---,0.00,VWS V13.00,2013-08-06 08:16:00,
2013-08-06 02:21:00,50.8,46.2,29.81,SSW,213,0.0,0.0,84,0.00,,---,0.00,VWS V13.00,2013-08-06 08:21:00,
2013-08-06 02:26:00,50.4,46.1,29.82,SSW,213,0.0,0.0,85,0.00,,---,0.00,VWS V13.00,2013-08-06 08:26:00,
2013-08-06 02:31:00,50.1,45.8,29.82,SSW,213,0.0,0.0,85,0.00,,---,0.00,VWS V13.00,2013-08-06 08:31:00,
2013-08-06 02:36:00,49.9,45.9,29.82,SSW,213,0.0,0.0,86,0.00,,---,0.00,VWS V13.00,2013-08-06 08:36:00,
2013-08-06 02:41:00,50.0,46.0,29.82,SSW,213,0.0,0.0,86,0.00,,---,0.00,VWS V13.00,2013-08-06 08:41:00,
2013-08-06 02:46:00,50.3,46.3,29.82,SSW,213,0.0,0.0,86,0.00,,---,0.00,VWS V13.00,2013-08-06 08:46:00,
2013-08-06 02:51:00,50.4,46.1,29.82,SSW,213,0.0,0.0,85,0.00,,---,0.00,VWS V13.00,2013-08-06 08:51:00,
2013-08-06 02:56:00,50.5,46.2,29.83,SSW,213,0.0,0.0,85,0.00,,---,0.00,VWS V13.00,2013-08-06 08:56:00,
2013-08-06 03:01:00,50.4,45.4,29.83,SSW,213,0.0,0.0,83,0.00,,---,0.00,VWS V13.00,2013-08-06 09:01:00,
2013-08-06 03:06:00,49.9,45.3,29.83,SSW,213,0.0,0.0,84,0.00,,---,0.00,VWS V13.00,2013-08-06 09:06:00,
2013-08-06 03:11:00,49.4,45.1,29.83,SSW,213,0.0,0.0,85,0.00,,---,0.00,VWS V13.00,2013-08-06 09:11:00,
2013-08-06 03:16:00,49.2,44.9,29.83,SSW,213,0.0,0.0,85,0.00,,---,0.00,VWS V13.00,2013-08-06 09:16:00,
2013-08-06 03:20:00,49.0,45.0,29.83,SSW,213,0.0,0.0,86,0.00,,---,0.00,VWS V13.00,2013-08-06 09:20:00,
2013-08-06 03:26:00,48.7,44.7,29.84,SSW,213,0.0,0.0,86,0.00,,---,0.00,VWS V13.00,2013-08-06 09:26:00,
2013-08-06 03:30:00,48.3,44.3,29.84,SSW,213,0.0,0.0,86,0.00,,---,0.00,VWS V13.00,2013-08-06 09:30:00,
2013-08-06 03:35:00,47.9,44.2,29.84,SSW,211,0.0,0.0,87,0.00,,---,0.00,VWS V13.00,2013-08-06 09:35:00,
2013-08-06 03:40:00,47.8,44.4,29.84,SSW,211,0.0,0.0,88,0.00,,---,0.00,VWS V13.00,2013-08-06 09:40:00,
2013-08-06 03:45:00,48.1,44.7,29.84,SSW,211,0.0,0.0,88,0.00,,---,0.00,VWS V13.00,2013-08-06 09:45:00,
2013-08-06 03:50:00,48.0,44.3,29.84,SSW,211,0.0,0.0,87,0.00,,---,0.00,VWS V13.00,2013-08-06 09:50:00,
2013-08-06 03:55:00,48.0,44.3,29.83,SSW,211,0.0,0.0,87,0.00,,---,0.00,VWS V13.00,2013-08-06 09:55:00,
2013-08-06 04:00:00,47.8,44.1,29.83,SSW,211,0.0,0.0,87,0.00,,---,0.00,VWS V13.00,2013-08-06 10:00:00,
2013-08-06 04:05:00,47.6,44.2,29.83,SSW,211,0.0,0.0,88,0.00,,---,0.00,VWS V13.00,2013-08-06 10:05:00,
2013-08-06 04:10:00,47.9,44.5,29.83,SSW,211,0.0,0.0,88,0.00,,---,0.00,VWS V13.00,2013-08-06 10:10:00,
2013-08-06 04:15:00,48.3,44.6,29.83,SSW,211,0.0,0.0,87,0.00,,---,0.00,VWS V13.00,2013-08-06 10:15:00,
2013-08-06 04:20:00,48.2,43.9,29.83,SSW,211,0.0,0.0,85,0.00,,---,0.00,VWS V13.00,2013-08-06 10:20:00,
2013-08-06 04:25:00,47.6,43.3,29.83,SSW,211,0.0,0.0,85,0.00,,---,0.00,VWS V13.00,2013-08-06 10:25:00,
2013-08-06 04:30:00,47.3,43.3,29.83,SSW,211,0.0,0.0,86,0.00,,---,0.00,VWS V13.00,2013-08-06 10:30:00,
2013-08-06 04:35:00,46.8,42.8,29.83,SSW,211,0.0,0.0,86,0.00,,---,0.00,VWS V13.00,2013-08-06 10:35:00,
2013-08-06 04:40:00,46.5,42.8,29.84,SSW,211,0.0,0.0,87,0.00,,---,0.00,VWS V13.00,2013-08-06 10:40:00,
2013-08-06 04:45:00,46.2,42.8,29.84,SSW,209,0.0,0.0,88,0.00,,---,0.00,VWS V13.00,2013-08-06 10:45:00,
2013-08-06 04:50:00,46.1,43.0,29.84,SSW,209,0.0,0.0,89,0.00,,---,0.00,VWS V13.00,2013-08-06 10:50:00,
2013-08-06 04:55:00,45.9,42.8,29.84,SSW,207,0.0,0.0,89,0.00,,---,0.00,VWS V13.00,2013-08-06 10:55:00,
2013-08-06 05:00:00,45.8,42.8,29.84,SSW,207,0.0,0.0,89,0.00,,---,0.00,VWS V13.00,2013-08-06 11:00:00,
2013-08-06 05:05:00,45.6,42.5,29.84,SSW,207,0.0,0.0,89,0.00,,---,0.00,VWS V13.00,2013-08-06 11:05:00,
2013-08-06 05:10:00,45.6,42.8,29.84,SSW,207,0.0,0.0,90,0.00,,---,0.00,VWS V13.00,2013-08-06 11:10:00,
2013-08-06 05:15:00,45.5,42.7,29.84,SSW,207,0.0,0.0,90,0.00,,---,0.00,VWS V13.00,2013-08-06 11:15:00,
2013-08-06 05:20:00,45.4,42.6,29.84,SSW,207,0.0,0.0,90,0.00,,---,0.00,VWS V13.00,2013-08-06 11:20:00,
2013-08-06 05:25:00,45.1,42.3,29.84,SSW,207,0.0,0.0,90,0.00,,---,0.00,VWS V13.00,2013-08-06 11:25:00,
2013-08-06 05:30:00,45.0,42.2,29.84,SSW,207,0.0,0.0,90,0.00,,---,0.00,VWS V13.00,2013-08-06 11:30:00,
2013-08-06 05:35:00,44.7,42.2,29.84,SSW,207,0.0,0.0,91,0.00,,---,0.00,VWS V13.00,2013-08-06 11:35:00,
2013-08-06 05:40:00,44.5,42.0,29.85,SSW,207,0.0,0.0,91,0.00,,---,0.00,VWS V13.00,2013-08-06 11:40:00,
2013-08-06 05:45:00,44.3,41.8,29.85,SSW,206,0.0,0.0,91,0.00,,---,0.00,VWS V13.00,2013-08-06 11:45:00,
2013-08-06 05:50:00,44.2,41.7,29.85,SSW,206,0.0,0.0,91,0.00,,---,0.00,VWS V13.00,2013-08-06 11:50:00,
2013-08-06 05:55:00,44.1,41.7,29.88,SSW,206,0.0,0.0,91,0.00,,---,0.00,VWS V13.00,2013-08-06 11:55:00,
2013-08-06 06:00:00,44.2,42.0,29.88,South,190,0.0,0.0,92,0.00,,---,0.00,VWS V13.00,2013-08-06 12:00:00,
2013-08-06 06:05:00,44.5,42.3,29.88,South,189,0.0,0.0,92,0.00,,---,0.00,VWS V13.00,2013-08-06 12:05:00,
2013-08-06 06:10:00,44.7,42.8,29.88,South,189,0.0,0.0,93,0.00,,---,0.00,VWS V13.00,2013-08-06 12:10:00,
2013-08-06 06:15:00,44.9,42.7,29.88,South,188,0.0,0.0,92,0.00,,---,0.00,VWS V13.00,2013-08-06 12:15:00,
2013-08-06 06:20:00,45.0,42.8,29.88,South,187,5.0,6.0,92,0.00,,---,0.00,VWS V13.00,2013-08-06 12:20:00,
2013-08-06 06:25:00,45.0,42.8,29.87,South,184,4.0,6.0,92,0.00,,---,0.00,VWS V13.00,2013-08-06 12:25:00,
2013-08-06 06:30:00,45.0,42.8,29.87,South,184,0.0,6.0,92,0.00,,---,0.00,VWS V13.00,2013-08-06 12:30:00,
2013-08-06 06:35:00,45.2,43.0,29.87,South,184,0.0,6.0,92,0.00,,---,0.00,VWS V13.00,2013-08-06 12:35:00,
2013-08-06 06:40:00,45.6,43.4,29.88,South,184,0.0,0.0,92,0.00,,---,0.00,VWS V13.00,2013-08-06 12:40:00,
2013-08-06 06:45:00,45.7,43.2,29.88,South,184,0.0,0.0,91,0.00,,---,0.00,VWS V13.00,2013-08-06 12:45:00,
2013-08-06 06:50:00,46.0,43.5,29.88,South,180,0.0,0.0,91,0.00,,---,0.00,VWS V13.00,2013-08-06 12:50:00,
2013-08-06 06:55:00,45.8,43.3,29.89,SE,135,0.0,0.0,91,0.00,,---,0.00,VWS V13.00,2013-08-06 12:55:00,
2013-08-06 07:00:00,46.1,43.6,29.89,SE,136,0.0,0.0,91,0.00,,---,0.00,VWS V13.00,2013-08-06 13:00:00,
2013-08-06 07:05:00,46.5,44.0,29.89,SE,140,0.0,0.0,91,0.00,,---,0.00,VWS V13.00,2013-08-06 13:05:00,
2013-08-06 07:10:00,47.1,44.6,29.88,SE,140,0.0,0.0,91,0.00,,---,0.00,VWS V13.00,2013-08-06 13:10:00,
2013-08-06 07:15:00,47.7,45.5,29.88,SE,140,0.0,0.0,92,0.00,,---,0.00,VWS V13.00,2013-08-06 13:15:00,
2013-08-06 07:20:00,48.3,45.8,29.88,SE,140,0.0,0.0,91,0.00,,---,0.00,VWS V13.00,2013-08-06 13:20:00,
2013-08-06 07:25:00,49.0,46.2,29.88,SE,140,0.0,0.0,90,0.00,,---,0.00,VWS V13.00,2013-08-06 13:25:00,
2013-08-06 07:30:00,49.7,46.6,29.88,SE,140,0.0,0.0,89,0.00,,---,0.00,VWS V13.00,2013-08-06 13:30:00,
2013-08-06 07:35:00,50.2,46.8,29.88,SE,140,0.0,0.0,88,0.00,,---,0.00,VWS V13.00,2013-08-06 13:35:00,
2013-08-06 07:40:00,50.6,46.9,29.87,SE,140,0.0,0.0,87,0.00,,---,0.00,VWS V13.00,2013-08-06 13:40:00,
2013-08-06 07:45:00,50.8,46.8,29.87,SE,139,0.0,0.0,86,0.00,,---,0.00,VWS V13.00,2013-08-06 13:45:00,
2013-08-06 07:50:00,51.4,47.4,29.87,SE,138,0.0,0.0,86,0.00,,---,0.00,VWS V13.00,2013-08-06 13:50:00,
2013-08-06 07:55:00,52.3,47.9,29.87,SE,139,3.0,5.0,85,0.00,,---,0.00,VWS V13.00,2013-08-06 13:55:00,
2013-08-06 08:00:00,53.0,48.3,29.87,SE,137,0.0,5.0,84,0.00,,---,0.00,VWS V13.00,2013-08-06 14:00:00,
2013-08-06 08:05:00,53.7,49.0,29.87,SE,137,0.0,5.0,84,0.00,,---,0.00,VWS V13.00,2013-08-06 14:05:00,
2013-08-06 08:10:00,54.5,49.5,29.86,SE,137,0.0,0.0,83,0.00,,---,0.00,VWS V13.00,2013-08-06 14:10:00,
2013-08-06 08:15:00,55.1,49.4,29.86,SE,137,0.0,0.0,81,0.00,,---,0.00,VWS V13.00,2013-08-06 14:15:00,
2013-08-06 08:20:00,55.7,50.0,29.86,SE,137,0.0,0.0,81,0.00,,---,0.00,VWS V13.00,2013-08-06 14:20:00,
2013-08-06 08:25:00,56.4,50.0,29.86,SE,137,0.0,0.0,79,0.00,,---,0.00,VWS V13.00,2013-08-06 14:25:00,
2013-08-06 08:30:00,56.9,50.5,29.86,SE,145,0.0,0.0,79,0.00,,---,0.00,VWS V13.00,2013-08-06 14:30:00,
2013-08-06 08:35:00,57.5,50.7,29.86,NE,42,0.0,0.0,78,0.00,,---,0.00,VWS V13.00,2013-08-06 14:35:00,
2013-08-06 08:40:00,58.1,50.6,29.85,NE,42,0.0,0.0,76,0.00,,---,0.00,VWS V13.00,2013-08-06 14:40:00,
2013-08-06 08:45:00,58.9,52.1,29.85,NE,42,0.0,0.0,78,0.00,,---,0.00,VWS V13.00,2013-08-06 14:45:00,
2013-08-06 08:50:00,59.3,51.4,29.85,NE,42,0.0,0.0,75,0.00,,---,0.00,VWS V13.00,2013-08-06 14:50:00,
2013-08-06 08:55:00,59.9,52.0,29.86,NE,42,0.0,0.0,75,0.00,,---,0.00,VWS V13.00,2013-08-06 14:55:00,
2013-08-06 09:00:00,60.4,51.3,29.86,NE,42,0.0,0.0,72,0.00,,---,0.00,VWS V13.00,2013-08-06 15:00:00,
2013-08-06 09:05:00,60.9,51.5,29.86,NE,42,0.0,0.0,71,0.00,,---,0.00,VWS V13.00,2013-08-06 15:05:00,
2013-08-06 09:10:00,61.2,51.0,29.86,NE,35,0.0,0.0,69,0.00,,---,0.00,VWS V13.00,2013-08-06 15:10:00,
2013-08-06 09:15:00,61.5,51.2,29.86,North,355,0.0,0.0,69,0.00,,---,0.00,VWS V13.00,2013-08-06 15:15:00,
2013-08-06 09:20:00,61.7,50.6,29.86,North,355,0.0,0.0,67,0.00,,---,0.00,VWS V13.00,2013-08-06 15:20:00,
2013-08-06 09:25:00,62.0,51.7,29.86,North,355,0.0,0.0,69,0.00,,---,0.00,VWS V13.00,2013-08-06 15:25:00,
2013-08-06 09:30:00,62.4,52.5,29.86,North,360,0.0,3.0,70,0.00,,---,0.00,VWS V13.00,2013-08-06 15:30:00,
2013-08-06 09:35:00,63.0,52.7,29.86,NNW,345,1.0,4.0,69,0.00,,---,0.00,VWS V13.00,2013-08-06 15:35:00,
2013-08-06 09:40:00,63.4,52.3,29.85,WNW,295,4.0,4.0,67,0.00,,---,0.00,VWS V13.00,2013-08-06 15:40:00,
2013-08-06 09:45:00,63.6,52.0,29.85,NW,314,10.0,10.0,66,0.00,,---,0.00,VWS V13.00,2013-08-06 15:45:00,
2013-08-06 09:50:00,63.8,51.8,29.85,WNW,292,5.0,10.0,65,0.00,,---,0.00,VWS V13.00,2013-08-06 15:50:00,
2013-08-06 09:55:00,64.0,51.2,29.87,West,279,8.0,10.0,63,0.00,,---,0.00,VWS V13.00,2013-08-06 15:55:00,
2013-08-06 10:00:00,64.4,51.1,29.87,WNW,303,10.0,13.0,62,0.00,,---,0.00,VWS V13.00,2013-08-06 16:00:00,
2013-08-06 10:05:00,64.6,49.5,29.87,West,280,8.0,13.0,58,0.00,,---,0.00,VWS V13.00,2013-08-06 16:05:00,
2013-08-06 10:10:00,64.6,50.9,29.86,WNW,292,10.0,13.0,61,0.00,,---,0.00,VWS V13.00,2013-08-06 16:10:00,
2013-08-06 10:15:00,64.8,50.2,29.86,NW,306,10.0,15.0,59,0.00,,---,0.00,VWS V13.00,2013-08-06 16:15:00,
2013-08-06 10:20:00,65.1,52.2,29.86,NW,318,11.0,15.0,63,0.00,,---,0.00,VWS V13.00,2013-08-06 16:20:00,
2013-08-06 10:25:00,65.2,51.0,29.86,WNW,295,9.0,15.0,60,0.00,,---,0.00,VWS V13.00,2013-08-06 16:25:00,
2013-08-06 10:30:00,65.4,49.8,29.86,NW,326,10.0,15.0,57,0.00,,---,0.00,VWS V13.00,2013-08-06 16:30:00,
2013-08-06 10:35:00,65.4,50.7,29.86,NW,317,10.0,15.0,59,0.00,,---,0.00,VWS V13.00,2013-08-06 16:35:00,
2013-08-06 10:40:00,65.6,51.8,29.86,WNW,297,0.0,10.0,61,0.00,,---,0.00,VWS V13.00,2013-08-06 16:40:00,
2013-08-06 10:45:00,65.8,50.6,29.86,NNW,331,11.0,12.0,58,0.00,,---,0.00,VWS V13.00,2013-08-06 16:45:00,
2013-08-06 10:50:00,65.8,51.5,29.86,WNW,296,9.0,13.0,60,0.00,,---,0.00,VWS V13.00,2013-08-06 16:50:00,
2013-08-06 10:55:00,66.3,50.2,29.86,WNW,283,11.0,15.0,56,0.00,,---,0.00,VWS V13.00,2013-08-06 16:55:00,
2013-08-06 11:00:00,66.7,51.5,29.86,NW,315,14.0,15.0,58,0.00,,---,0.00,VWS V13.00,2013-08-06 17:00:00,
2013-08-06 11:05:00,67.0,50.3,29.86,WNW,291,11.0,15.0,55,0.00,,---,0.00,VWS V13.00,2013-08-06 17:05:00,
2013-08-06 11:10:00,67.0,49.3,29.86,NW,306,10.0,14.0,53,0.00,,---,0.00,VWS V13.00,2013-08-06 17:10:00,
2013-08-06 11:15:00,66.9,49.7,29.86,NW,319,7.0,14.0,54,0.00,,---,0.00,VWS V13.00,2013-08-06 17:15:00,
2013-08-06 11:20:00,67.1,50.4,29.86,NW,314,10.0,17.0,55,0.00,,---,0.00,VWS V13.00,2013-08-06 17:20:00,
2013-08-06 11:25:00,67.3,50.1,29.86,NW,306,13.0,17.0,54,0.00,,---,0.00,VWS V13.00,2013-08-06 17:25:00,
2013-08-06 11:27:00,67.4,51.2,29.86,NW,307,18.0,20.0,56,0.00,,---,0.00,VWS V13.00,2013-08-06 17:27:00,
2013-08-06 11:32:00,67.5,50.8,29.86,WNW,302,14.0,20.0,55,0.00,,---,0.00,VWS V13.00,2013-08-06 17:32:00,
2013-08-06 11:37:00,67.6,50.9,29.85,NW,310,16.0,20.0,55,0.00,,---,0.00,VWS V13.00,2013-08-06 17:37:00,
2013-08-06 11:42:00,67.5,51.3,29.85,NNW,336,14.0,16.0,56,0.00,,---,0.00,VWS V13.00,2013-08-06 17:42:00,
2013-08-06 11:47:00,67.5,50.3,29.85,NNW,333,16.0,17.0,54,0.00,,---,0.00,VWS V13.00,2013-08-06 17:47:00,
2013-08-06 11:52:00,67.6,51.4,29.86,NW,321,11.0,18.0,56,0.00,,---,0.00,VWS V13.00,2013-08-06 17:52:00,
2013-08-06 11:57:00,67.5,51.3,29.86,NW,323,6.0,18.0,56,0.00,,---,0.00,VWS V13.00,2013-08-06 17:57:00,
2013-08-06 12:02:00,67.6,50.9,29.86,North,355,11.0,18.0,55,0.00,,---,0.00,VWS V13.00,2013-08-06 18:02:00,
2013-08-06 12:07:00,67.9,51.6,29.86,NW,308,17.0,19.0,56,0.00,,---,0.00,VWS V13.00,2013-08-06 18:07:00,
2013-08-06 12:12:00,68.0,50.8,29.86,NW,313,7.0,17.0,54,0.00,,---,0.00,VWS V13.00,2013-08-06 18:12:00,
2013-08-06 12:17:00,68.1,50.8,29.86,WNW,290,9.0,17.0,54,0.00,,---,0.00,VWS V13.00,2013-08-06 18:17:00,
2013-08-06 12:22:00,68.6,51.3,29.86,NNW,348,14.0,19.0,54,0.00,,---,0.00,VWS V13.00,2013-08-06 18:22:00,
2013-08-06 12:27:00,68.7,52.9,29.86,NNW,331,17.0,19.0,57,0.00,,---,0.00,VWS V13.00,2013-08-06 18:27:00,
2013-08-06 12:32:00,68.7,51.4,29.86,NNW,340,18.0,21.0,54,0.00,,---,0.00,VWS V13.00,2013-08-06 18:32:00,
2013-08-06 12:37:00,68.6,50.8,29.86,NNW,331,13.0,21.0,53,0.00,,---,0.00,VWS V13.00,2013-08-06 18:37:00,
2013-08-06 12:42:00,68.8,51.5,29.86,NNW,342,14.0,18.0,54,0.00,,---,0.00,VWS V13.00,2013-08-06 18:42:00,
2013-08-06 12:47:00,69.0,52.7,29.86,WNW,287,14.0,21.0,56,0.00,,---,0.00,VWS V13.00,2013-08-06 18:47:00,
2013-08-06 12:52:00,68.9,50.0,29.87,NW,304,11.0,21.0,51,0.00,,---,0.00,VWS V13.00,2013-08-06 18:52:00,
2013-08-06 12:57:00,68.2,49.9,29.87,NW,323,13.0,21.0,52,0.00,,---,0.00,VWS V13.00,2013-08-06 18:57:00,
2013-08-06 13:02:00,68.2,50.4,29.87,NNW,329,11.0,21.0,53,0.00,,---,0.00,VWS V13.00,2013-08-06 19:02:00,
2013-08-06 13:07:00,68.9,50.6,29.87,NW,304,15.0,21.0,52,0.00,,---,0.00,VWS V13.00,2013-08-06 19:07:00,
2013-08-06 13:12:00,69.6,52.7,29.87,North,349,17.0,19.0,55,0.00,,---,0.00,VWS V13.00,2013-08-06 19:12:00,
2013-08-06 13:17:00,69.6,51.2,29.87,NNW,338,15.0,19.0,52,0.00,,---,0.00,VWS V13.00,2013-08-06 19:17:00,
2013-08-06 13:22:00,69.7,52.3,29.87,NNW,346,16.0,19.0,54,0.00,,---,0.00,VWS V13.00,2013-08-06 19:22:00,
2013-08-06 13:27:00,69.7,50.8,29.87,NNW,330,11.0,19.0,51,0.00,,---,0.00,VWS V13.00,2013-08-06 19:27:00,
2013-08-06 13:32:00,70.0,50.5,29.87,NW,320,16.0,19.0,50,0.00,,---,0.00,VWS V13.00,2013-08-06 19:32:00,
2013-08-06 13:37:00,70.4,49.8,29.87,NNW,336,12.0,19.0,48,0.00,,---,0.00,VWS V13.00,2013-08-06 19:37:00,
2013-08-06 13:42:00,70.6,48.8,29.87,NW,326,10.0,13.0,46,0.00,,---,0.00,VWS V13.00,2013-08-06 19:42:00,
2013-08-06 13:47:00,70.6,48.8,29.87,NW,321,11.0,22.0,46,0.00,,---,0.00,VWS V13.00,2013-08-06 19:47:00,
2013-08-06 13:52:00,70.8,49.0,29.88,WNW,296,10.0,22.0,46,0.00,,---,0.00,VWS V13.00,2013-08-06 19:52:00,
2013-08-06 13:57:00,71.2,50.0,29.88,WNW,303,17.0,22.0,47,0.00,,---,0.00,VWS V13.00,2013-08-06 19:57:00,
2013-08-06 14:02:00,71.4,49.0,29.88,NW,326,15.0,22.0,45,0.00,,---,0.00,VWS V13.00,2013-08-06 20:02:00,
2013-08-06 14:07:00,71.3,48.3,29.87,NW,317,16.0,22.0,44,0.00,,---,0.00,VWS V13.00,2013-08-06 20:07:00,
2013-08-06 14:12:00,71.2,50.0,29.87,NW,319,9.0,17.0,47,0.00,,---,0.00,VWS V13.00,2013-08-06 20:12:00,
2013-08-06 14:17:00,71.1,49.3,29.87,NW,325,14.0,20.0,46,0.00,,---,0.00,VWS V13.00,2013-08-06 20:17:00,
2013-08-06 14:22:00,71.2,50.0,29.87,NNW,328,16.0,20.0,47,0.00,,---,0.00,VWS V13.00,2013-08-06 20:22:00,
2013-08-06 14:27:00,71.5,49.7,29.87,NW,310,17.0,21.0,46,0.00,,---,0.00,VWS V13.00,2013-08-06 20:27:00,
2013-08-06 14:32:00,71.7,49.8,29.87,NW,318,15.0,23.0,46,0.00,,---,0.00,VWS V13.00,2013-08-06 20:32:00,
2013-08-06 14:37:00,71.3,48.9,29.87,NW,311,10.0,23.0,45,0.00,,---,0.00,VWS V13.00,2013-08-06 20:37:00,
2013-08-06 14:42:00,71.3,48.9,29.87,NNW,327,16.0,17.0,45,0.00,,---,0.00,VWS V13.00,2013-08-06 20:42:00,
2013-08-06 14:47:00,71.8,49.9,29.87,NW,306,19.0,21.0,46,0.00,,---,0.00,VWS V13.00,2013-08-06 20:47:00,
2013-08-06 14:52:00,72.2,50.9,29.87,NW,319,12.0,21.0,47,0.00,,---,0.00,VWS V13.00,2013-08-06 20:52:00,
2013-08-06 14:57:00,72.3,51.0,29.87,NW,323,7.0,21.0,47,0.00,,---,0.00,VWS V13.00,2013-08-06 20:57:00,
2013-08-06 15:02:00,72.6,50.7,29.87,NW,323,11.0,21.0,46,0.00,,---,0.00,VWS V13.00,2013-08-06 21:02:00,
2013-08-06 15:07:00,72.9,50.9,29.87,NNW,327,13.0,36.0,46,0.00,,---,0.00,VWS V13.00,2013-08-06 21:07:00,
2013-08-06 15:12:00,72.7,50.8,29.87,NNW,329,15.0,21.0,46,0.00,,---,0.00,VWS V13.00,2013-08-06 21:12:00,
2013-08-06 15:17:00,72.0,48.9,29.87,NW,310,16.0,22.0,44,0.00,,---,0.00,VWS V13.00,2013-08-06 21:17:00,
2013-08-06 15:22:00,71.9,48.2,29.86,WNW,300,11.0,22.0,43,0.00,,---,0.00,VWS V13.00,2013-08-06 21:22:00,
2013-08-06 15:27:00,72.4,51.0,29.86,NW,311,15.0,22.0,47,0.00,,---,0.00,VWS V13.00,2013-08-06 21:27:00,
2013-08-06 15:32:00,72.7,50.8,29.86,NW,319,12.0,22.0,46,0.00,,---,0.00,VWS V13.00,2013-08-06 21:32:00,
2013-08-06 15:37:00,72.3,49.2,29.86,NNW,338,13.0,22.0,44,0.00,,---,0.00,VWS V13.00,2013-08-06 21:37:00,
2013-08-06 15:42:00,72.0,48.9,29.86,NW,325,16.0,20.0,44,0.00,,---,0.00,VWS V13.00,2013-08-06 21:42:00,
2013-08-06 15:47:00,72.3,51.0,29.86,NNW,341,11.0,20.0,47,0.00,,---,0.00,VWS V13.00,2013-08-06 21:47:00,
2013-08-06 15:52:00,72.3,50.4,29.87,NW,305,18.0,20.0,46,0.00,,---,0.00,VWS V13.00,2013-08-06 21:52:00,
2013-08-06 15:57:00,72.1,50.8,29.87,NNW,333,11.0,20.0,47,0.00,,---,0.00,VWS V13.00,2013-08-06 21:57:00,
2013-08-06 16:02:00,72.1,49.0,29.87,NW,314,10.0,20.0,44,0.00,,---,0.00,VWS V13.00,2013-08-06 22:02:00,
2013-08-06 16:07:00,72.0,49.5,29.87,NW,313,10.0,20.0,45,0.00,,---,0.00,VWS V13.00,2013-08-06 22:07:00,
2013-08-06 16:12:00,72.9,49.1,29.87,NW,309,18.0,23.0,43,0.00,,---,0.00,VWS V13.00,2013-08-06 22:12:00,
2013-08-06 16:17:00,73.4,47.6,29.87,WNW,283,16.0,23.0,40,0.00,,---,0.00,VWS V13.00,2013-08-06 22:17:00,
2013-08-06 16:22:00,73.6,48.5,29.85,WNW,299,19.0,24.0,41,0.00,,---,0.00,VWS V13.00,2013-08-06 22:22:00,
2013-08-06 16:27:00,73.7,49.2,29.85,NW,313,16.0,24.0,42,0.00,,---,0.00,VWS V13.00,2013-08-06 22:27:00,
2013-08-06 16:32:00,73.9,49.4,29.85,NNW,334,13.0,24.0,42,0.00,,---,0.00,VWS V13.00,2013-08-06 22:32:00,
2013-08-06 16:37:00,73.5,48.4,29.86,NW,321,21.0,24.0,41,0.00,,---,0.00,VWS V13.00,2013-08-06 22:37:00,
2013-08-06 16:42:00,72.6,47.6,29.86,NW,317,17.0,25.0,41,0.00,,---,0.00,VWS V13.00,2013-08-06 22:42:00,
2013-08-06 16:47:00,73.1,46.7,29.86,NW,321,14.0,25.0,39,0.00,,---,0.00,VWS V13.00,2013-08-06 22:47:00,
2013-08-06 16:52:00,73.0,45.9,29.87,WNW,299,13.0,26.0,38,0.00,,---,0.00,VWS V13.00,2013-08-06 22:52:00,
2013-08-06 16:57:00,73.3,47.5,29.87,NNW,331,14.0,26.0,40,0.00,,---,0.00,VWS V13.00,2013-08-06 22:57:00,
2013-08-06 17:02:00,73.7,45.8,29.87,NW,311,17.0,26.0,37,0.00,,---,0.00,VWS V13.00,2013-08-06 23:02:00,
2013-08-06 17:07:00,73.8,47.3,29.87,NW,318,13.0,26.0,39,0.00,,---,0.00,VWS V13.00,2013-08-06 23:07:00,
2013-08-06 17:12:00,73.9,46.0,29.87,NW,314,13.0,22.0,37,0.00,,---,0.00,VWS V13.00,2013-08-06 23:12:00,
2013-08-06 17:16:00,74.1,46.2,29.87,NW,313,19.0,22.0,37,0.00,,---,0.00,VWS V13.00,2013-08-06 23:16:00,
2013-08-06 17:21:00,74.0,43.9,29.87,NW,321,17.0,28.0,34,0.00,,---,0.00,VWS V13.00,2013-08-06 23:21:00,
2013-08-06 17:26:00,73.8,45.2,29.87,WNW,300,12.0,28.0,36,0.00,,---,0.00,VWS V13.00,2013-08-06 23:26:00,
2013-08-06 17:31:00,73.7,43.6,29.87,NW,310,21.0,28.0,34,0.00,,---,0.00,VWS V13.00,2013-08-06 23:31:00,
2013-08-06 17:36:00,73.5,42.7,29.87,NW,311,18.0,28.0,33,0.00,,---,0.00,VWS V13.00,2013-08-06 23:36:00,
2013-08-06 17:41:00,73.5,44.9,29.87,NNW,336,16.0,27.0,36,0.00,,---,0.00,VWS V13.00,2013-08-06 23:41:00,
2013-08-06 17:46:00,73.6,45.0,29.87,NW,325,11.0,27.0,36,0.00,,---,0.00,VWS V13.00,2013-08-06 23:46:00,
2013-08-06 17:51:00,73.5,45.7,29.87,NW,323,10.0,27.0,37,0.00,,---,0.00,VWS V13.00,2013-08-06 23:51:00,
2013-08-06 17:56:00,73.5,44.9,29.87,NNW,344,17.0,27.0,36,0.00,,---,0.00,VWS V13.00,2013-08-06 23:56:00,
2013-08-06 18:01:00,73.4,46.3,29.87,NW,313,13.0,27.0,38,0.00,,---,0.00,VWS V13.00,2013-08-07 00:01:00,
2013-08-06 18:06:00,73.2,43.9,29.87,NW,325,12.0,27.0,35,0.00,,---,0.00,VWS V13.00,2013-08-07 00:06:00,
2013-08-06 18:11:00,73.2,43.9,29.87,NW,325,15.0,20.0,35,0.00,,---,0.00,VWS V13.00,2013-08-07 00:11:00,
2013-08-06 18:16:00,73.0,43.0,29.87,NW,313,16.0,22.0,34,0.00,,---,0.00,VWS V13.00,2013-08-07 00:16:00,
2013-08-06 18:21:00,72.9,43.7,29.87,NW,325,14.0,22.0,35,0.00,,---,0.00,VWS V13.00,2013-08-07 00:21:00,
2013-08-06 18:26:00,72.9,45.1,29.87,NW,315,13.0,22.0,37,0.00,,---,0.00,VWS V13.00,2013-08-07 00:26:00,
2013-08-06 18:31:00,72.7,43.5,29.87,NW,316,18.0,22.0,35,0.00,,---,0.00,VWS V13.00,2013-08-07 00:31:00,
2013-08-06 18:36:00,72.6,44.1,29.87,NW,313,13.0,23.0,36,0.00,,---,0.00,VWS V13.00,2013-08-07 00:36:00,
2013-08-06 18:41:00,72.5,44.1,29.87,NNW,329,16.0,17.0,36,0.00,,---,0.00,VWS V13.00,2013-08-07 00:41:00,
2013-08-06 18:46:00,72.4,45.4,29.87,NW,319,11.0,17.0,38,0.00,,---,0.00,VWS V13.00,2013-08-07 00:46:00,
2013-08-06 18:51:00,72.3,45.3,29.87,NW,308,14.0,17.0,38,0.00,,---,0.00,VWS V13.00,2013-08-07 00:51:00,
2013-08-06 18:56:00,72.2,46.6,29.85,NW,323,8.0,17.0,40,0.00,,---,0.00,VWS V13.00,2013-08-07 00:56:00,
2013-08-06 19:01:00,72.1,45.8,29.85,NW,325,12.0,17.0,39,0.00,,---,0.00,VWS V13.00,2013-08-07 01:01:00,
2013-08-06 19:06:00,71.9,47.0,29.85,NW,319,9.0,18.0,41,0.00,,---,0.00,VWS V13.00,2013-08-07 01:06:00,
2013-08-06 19:11:00,71.7,46.1,29.86,NW,319,14.0,15.0,40,0.00,,---,0.00,VWS V13.00,2013-08-07 01:11:00,
2013-08-06 19:16:00,71.5,46.6,29.86,NNW,337,4.0,15.0,41,0.00,,---,0.00,VWS V13.00,2013-08-07 01:16:00,
2013-08-06 19:21:00,71.4,47.1,29.86,NNW,337,3.0,15.0,42,0.00,,---,0.00,VWS V13.00,2013-08-07 01:21:00,
2013-08-06 19:26:00,71.3,45.8,29.86,NNW,339,4.0,15.0,40,0.00,,---,0.00,VWS V13.00,2013-08-07 01:26:00,
2013-08-06 19:31:00,71.1,46.2,29.86,NNW,346,1.0,15.0,41,0.00,,---,0.00,VWS V13.00,2013-08-07 01:31:00,
2013-08-06 19:36:00,70.9,46.7,29.86,NNW,342,7.0,15.0,42,0.00,,---,0.00,VWS V13.00,2013-08-07 01:36:00,
2013-08-06 19:41:00,70.6,45.8,29.86,NNW,346,3.0,11.0,41,0.00,,---,0.00,VWS V13.00,2013-08-07 01:41:00,
2013-08-06 19:46:00,70.4,45.0,29.86,NNW,334,3.0,11.0,40,0.00,,---,0.00,VWS V13.00,2013-08-07 01:46:00,
2013-08-06 19:51:00,70.3,46.2,29.86,North,350,7.0,11.0,42,0.00,,---,0.00,VWS V13.00,2013-08-07 01:51:00,
2013-08-06 19:56:00,70.1,46.6,29.83,North,355,2.0,13.0,43,0.00,,---,0.00,VWS V13.00,2013-08-07 01:56:00,
2013-08-06 20:01:00,69.8,46.3,29.83,North,349,2.0,13.0,43,0.00,,---,0.00,VWS V13.00,2013-08-07 02:01:00,
2013-08-06 20:06:00,69.4,46.6,29.83,North,355,3.0,13.0,44,0.00,,---,0.00,VWS V13.00,2013-08-07 02:06:00,
2013-08-06 20:11:00,69.2,47.0,29.84,North,355,0.0,2.0,45,0.00,,---,0.00,VWS V13.00,2013-08-07 02:11:00,
2013-08-06 20:16:00,68.9,47.3,29.84,North,355,0.0,2.0,46,0.00,,---,0.00,VWS V13.00,2013-08-07 02:16:00,
2013-08-06 20:21:00,68.5,47.5,29.84,North,355,0.0,2.0,47,0.00,,---,0.00,VWS V13.00,2013-08-07 02:21:00,
2013-08-06 20:26:00,68.1,47.7,29.84,North,355,0.0,2.0,48,0.00,,---,0.00,VWS V13.00,2013-08-07 02:26:00,
2013-08-06 20:31:00,67.8,48.0,29.84,North,355,0.0,2.0,49,0.00,,---,0.00,VWS V13.00,2013-08-07 02:31:00,
2013-08-06 20:36:00,67.5,47.1,29.84,North,355,0.0,2.0,48,0.00,,---,0.00,VWS V13.00,2013-08-07 02:36:00,
2013-08-06 20:41:00,67.2,46.9,29.85,North,355,0.0,0.0,48,0.00,,---,0.00,VWS V13.00,2013-08-07 02:41:00,
2013-08-06 20:46:00,66.8,46.5,29.85,North,355,0.0,0.0,48,0.00,,---,0.00,VWS V13.00,2013-08-07 02:46:00,
2013-08-06 20:51:00,66.5,46.2,29.85,North,355,0.0,0.0,48,0.00,,---,0.00,VWS V13.00,2013-08-07 02:51:00,
2013-08-06 20:56:00,66.2,46.5,29.85,North,355,0.0,0.0,49,0.00,,---,0.00,VWS V13.00,2013-08-07 02:56:00,
2013-08-06 21:01:00,66.1,46.4,29.85,North,355,0.0,0.0,49,0.00,,---,0.00,VWS V13.00,2013-08-07 03:01:00,
2013-08-06 21:06:00,66.0,45.8,29.85,North,355,0.0,0.0,48,0.00,,---,0.00,VWS V13.00,2013-08-07 03:06:00,
2013-08-06 21:11:00,65.9,46.2,29.85,North,355,0.0,0.0,49,0.00,,---,0.00,VWS V13.00,2013-08-07 03:11:00,
2013-08-06 21:16:00,65.9,46.2,29.85,North,355,0.0,0.0,49,0.00,,---,0.00,VWS V13.00,2013-08-07 03:16:00,
2013-08-06 21:21:00,64.9,47.4,29.85,North,355,0.0,0.0,53,0.00,,---,0.00,VWS V13.00,2013-08-07 03:21:00,
2013-08-06 21:26:00,63.3,47.3,29.85,SE,134,0.0,0.0,56,0.00,,---,0.00,VWS V13.00,2013-08-07 03:26:00,
2013-08-06 21:31:00,61.6,47.2,29.85,SE,139,0.0,0.0,59,0.00,,---,0.00,VWS V13.00,2013-08-07 03:31:00,
2013-08-06 21:36:00,60.2,46.7,29.85,SE,138,0.0,0.0,61,0.00,,---,0.00,VWS V13.00,2013-08-07 03:36:00,
2013-08-06 21:41:00,59.0,46.8,29.88,SE,140,0.0,0.0,64,0.00,,---,0.00,VWS V13.00,2013-08-07 03:41:00,
2013-08-06 21:46:00,58.4,46.7,29.88,SE,144,0.0,8.0,65,0.00,,---,0.00,VWS V13.00,2013-08-07 03:46:00,
2013-08-06 21:51:00,58.0,46.3,29.88,SE,141,0.0,8.0,65,0.00,,---,0.00,VWS V13.00,2013-08-07 03:51:00,
2013-08-06 21:56:00,57.6,46.7,29.87,SE,140,0.0,8.0,67,0.00,,---,0.00,VWS V13.00,2013-08-07 03:56:00,
2013-08-06 22:01:00,57.0,46.6,29.87,SE,140,5.0,8.0,68,0.00,,---,0.00,VWS V13.00,2013-08-07 04:01:00,
2013-08-06 22:06:00,56.6,46.6,29.87,SE,140,3.0,8.0,69,0.00,,---,0.00,VWS V13.00,2013-08-07 04:06:00,
2013-08-06 22:11:00,56.2,46.6,29.89,SE,140,0.0,0.0,70,0.00,,---,0.00,VWS V13.00,2013-08-07 04:11:00,
2013-08-06 22:16:00,55.7,46.5,29.89,SE,141,5.0,6.0,71,0.00,,---,0.00,VWS V13.00,2013-08-07 04:16:00,
2013-08-06 22:21:00,55.3,46.1,29.89,SE,143,5.0,6.0,71,0.00,,---,0.00,VWS V13.00,2013-08-07 04:21:00,
2013-08-06 22:26:00,55.3,46.1,29.90,SE,135,0.0,7.0,71,0.00,,---,0.00,VWS V13.00,2013-08-07 04:26:00,
2013-08-06 22:31:00,55.3,46.1,29.90,SE,142,5.0,9.0,71,0.00,,---,0.00,VWS V13.00,2013-08-07 04:31:00,
2013-08-06 22:36:00,55.1,46.2,29.90,SE,145,6.0,9.0,72,0.00,,---,0.00,VWS V13.00,2013-08-07 04:36:00,
2013-08-06 22:41:00,54.8,46.0,29.90,SE,146,6.0,9.0,72,0.00,,---,0.00,VWS V13.00,2013-08-07 04:41:00,
2013-08-06 22:46:00,54.6,46.1,29.90,SE,146,4.0,10.0,73,0.00,,---,0.00,VWS V13.00,2013-08-07 04:46:00,
2013-08-06 22:51:00,54.2,45.8,29.90,SE,146,5.0,10.0,73,0.00,,---,0.00,VWS V13.00,2013-08-07 04:51:00,
2013-08-06 22:56:00,53.8,45.7,29.89,SE,146,7.0,10.0,74,0.00,,---,0.00,VWS V13.00,2013-08-07 04:56:00,
2013-08-06 23:01:00,53.5,45.8,29.89,SE,145,6.0,10.0,75,0.00,,---,0.00,VWS V13.00,2013-08-07 05:01:00,
2013-08-06 23:06:00,53.6,45.9,29.89,SE,141,9.0,10.0,75,0.00,,---,0.00,VWS V13.00,2013-08-07 05:06:00,
2013-08-06 23:11:00,53.6,45.9,29.89,SE,144,9.0,10.0,75,0.00,,---,0.00,VWS V13.00,2013-08-07 05:11:00,
2013-08-06 23:16:00,53.4,45.7,29.89,SSE,153,7.0,11.0,75,0.00,,---,0.00,VWS V13.00,2013-08-07 05:16:00,
2013-08-06 23:21:00,53.2,45.5,29.89,SSE,153,8.0,11.0,75,0.00,,---,0.00,VWS V13.00,2013-08-07 05:21:00,
2013-08-06 23:26:00,53.0,45.3,29.90,SSE,152,0.0,11.0,75,0.00,,---,0.00,VWS V13.00,2013-08-07 05:26:00,
2013-08-06 23:31:00,52.8,45.8,29.90,SSE,153,0.0,11.0,77,0.00,,---,0.00,VWS V13.00,2013-08-07 05:31:00,
2013-08-06 23:36:00,52.1,45.5,29.90,SE,136,5.0,11.0,78,0.00,,---,0.00,VWS V13.00,2013-08-07 05:36:00,
2013-08-06 23:41:00,51.3,45.3,29.90,SE,132,9.0,10.0,80,0.00,,---,0.00,VWS V13.00,2013-08-07 05:41:00,
2013-08-06 23:46:00,51.7,45.4,29.90,SE,133,9.0,11.0,79,0.00,,---,0.00,VWS V13.00,2013-08-07 05:46:00,
2013-08-06 23:51:00,52.4,45.4,29.90,SE,138,7.0,11.0,77,0.00,,---,0.00,VWS V13.00,2013-08-07 05:51:00,
2013-08-06 23:56:00,52.1,45.1,29.90,SE,130,6.0,11.0,77,0.00,,---,0.00,VWS V13.00,2013-08-07 05:56:00,